sensor_id;sensor_type;location;lat;lon;timestamp;P1;durP1;ratioP1;P2;durP2;ratioP2
85204;SDS011;75582;47.444;21.396;2024-02-26T00:00:59;25.50;;;14.45;;
85204;SDS011;75582;47.444;21.396;2024-02-26T00:02:25;25.65;;;14.80;;
85204;SDS011;75582;47.444;21.396;2024-02-26T00:03:51;27.50;;;15.00;;
85204;SDS011;75582;47.444;21.396;2024-02-26T00:05:17;24.15;;;13.95;;
85204;SDS011;75582;47.444;21.396;2024-02-26T00:06:43;26.08;;;14.32;;
85204;SDS011;75582;47.444;21.396;2024-02-26T00:08:09;23.23;;;13.48;;
85204;SDS011;75582;47.444;21.396;2024-02-26T00:09:35;23.15;;;13.70;;
85204;SDS011;75582;47.444;21.396;2024-02-26T00:11:02;23.98;;;13.77;;
85204;SDS011;75582;47.444;21.396;2024-02-26T00:12:28;30.07;;;16.00;;
85204;SDS011;75582;47.444;21.396;2024-02-26T00:13:54;27.00;;;14.65;;
85204;SDS011;75582;47.444;21.396;2024-02-26T00:15:20;27.90;;;16.27;;
85204;SDS011;75582;47.444;21.396;2024-02-26T00:16:46;26.55;;;15.85;;
85204;SDS011;75582;47.444;21.396;2024-02-26T00:18:12;25.30;;;15.75;;
85204;SDS011;75582;47.444;21.396;2024-02-26T00:19:38;29.88;;;16.05;;
85204;SDS011;75582;47.444;21.396;2024-02-26T00:21:04;25.13;;;14.43;;
85204;SDS011;75582;47.444;21.396;2024-02-26T00:22:30;26.40;;;15.80;;
85204;SDS011;75582;47.444;21.396;2024-02-26T00:23:57;22.45;;;13.88;;
85204;SDS011;75582;47.444;21.396;2024-02-26T00:25:30;25.42;;;15.27;;
85204;SDS011;75582;47.444;21.396;2024-02-26T00:26:56;24.37;;;15.87;;
85204;SDS011;75582;47.444;21.396;2024-02-26T00:28:22;22.65;;;13.23;;
85204;SDS011;75582;47.444;21.396;2024-02-26T00:29:50;26.70;;;14.80;;
85204;SDS011;75582;47.444;21.396;2024-02-26T00:31:16;27.02;;;15.35;;
85204;SDS011;75582;47.444;21.396;2024-02-26T00:32:42;24.85;;;15.20;;
85204;SDS011;75582;47.444;21.396;2024-02-26T00:34:08;25.65;;;14.02;;
85204;SDS011;75582;47.444;21.396;2024-02-26T00:35:34;29.10;;;14.32;;
85204;SDS011;75582;47.444;21.396;2024-02-26T00:37:01;27.95;;;14.38;;
85204;SDS011;75582;47.444;21.396;2024-02-26T00:38:27;23.13;;;14.50;;
85204;SDS011;75582;47.444;21.396;2024-02-26T00:39:53;29.55;;;15.43;;
85204;SDS011;75582;47.444;21.396;2024-02-26T00:41:22;24.63;;;14.53;;
85204;SDS011;75582;47.444;21.396;2024-02-26T00:42:48;22.85;;;14.68;;
85204;SDS011;75582;47.444;21.396;2024-02-26T00:44:14;28.00;;;16.83;;
85204;SDS011;75582;47.444;21.396;2024-02-26T00:45:40;25.70;;;15.35;;
85204;SDS011;75582;47.444;21.396;2024-02-26T00:47:06;30.20;;;16.50;;
85204;SDS011;75582;47.444;21.396;2024-02-26T00:48:32;24.52;;;15.07;;
85204;SDS011;75582;47.444;21.396;2024-02-26T00:49:58;30.20;;;16.48;;
85204;SDS011;75582;47.444;21.396;2024-02-26T00:51:24;27.45;;;17.58;;
85204;SDS011;75582;47.444;21.396;2024-02-26T00:52:50;30.05;;;17.27;;
85204;SDS011;75582;47.444;21.396;2024-02-26T00:54:16;29.83;;;16.73;;
85204;SDS011;75582;47.444;21.396;2024-02-26T00:55:42;30.63;;;16.53;;
85204;SDS011;75582;47.444;21.396;2024-02-26T00:57:08;26.20;;;15.85;;
85204;SDS011;75582;47.444;21.396;2024-02-26T00:58:34;32.60;;;16.73;;
85204;SDS011;75582;47.444;21.396;2024-02-26T01:00:00;28.20;;;16.42;;
85204;SDS011;75582;47.444;21.396;2024-02-26T01:01:26;27.38;;;16.13;;
85204;SDS011;75582;47.444;21.396;2024-02-26T01:02:52;25.05;;;15.35;;
85204;SDS011;75582;47.444;21.396;2024-02-26T01:04:18;27.80;;;15.95;;
85204;SDS011;75582;47.444;21.396;2024-02-26T01:05:44;27.65;;;15.57;;
85204;SDS011;75582;47.444;21.396;2024-02-26T01:07:11;29.75;;;16.13;;
85204;SDS011;75582;47.444;21.396;2024-02-26T01:08:37;26.00;;;15.73;;
85204;SDS011;75582;47.444;21.396;2024-02-26T01:10:03;27.73;;;15.07;;
85204;SDS011;75582;47.444;21.396;2024-02-26T01:11:31;29.80;;;15.40;;
85204;SDS011;75582;47.444;21.396;2024-02-26T01:12:56;29.13;;;15.50;;
85204;SDS011;75582;47.444;21.396;2024-02-26T01:14:23;30.38;;;16.13;;
85204;SDS011;75582;47.444;21.396;2024-02-26T01:15:49;25.80;;;15.65;;
85204;SDS011;75582;47.444;21.396;2024-02-26T01:17:15;26.38;;;16.27;;
85204;SDS011;75582;47.444;21.396;2024-02-26T01:18:41;28.35;;;16.45;;
85204;SDS011;75582;47.444;21.396;2024-02-26T01:20:07;28.15;;;15.80;;
85204;SDS011;75582;47.444;21.396;2024-02-26T01:21:34;28.40;;;16.08;;
85204;SDS011;75582;47.444;21.396;2024-02-26T01:23:00;26.23;;;14.60;;
85204;SDS011;75582;47.444;21.396;2024-02-26T01:24:32;25.43;;;15.90;;
85204;SDS011;75582;47.444;21.396;2024-02-26T01:25:58;28.90;;;16.13;;
85204;SDS011;75582;47.444;21.396;2024-02-26T01:27:24;28.70;;;16.70;;
85204;SDS011;75582;47.444;21.396;2024-02-26T01:28:52;26.63;;;16.95;;
85204;SDS011;75582;47.444;21.396;2024-02-26T01:30:18;31.40;;;16.45;;
85204;SDS011;75582;47.444;21.396;2024-02-26T01:31:44;31.85;;;16.38;;
85204;SDS011;75582;47.444;21.396;2024-02-26T01:33:10;27.25;;;16.13;;
85204;SDS011;75582;47.444;21.396;2024-02-26T01:34:36;25.27;;;16.10;;
85204;SDS011;75582;47.444;21.396;2024-02-26T01:36:05;26.85;;;15.43;;
85204;SDS011;75582;47.444;21.396;2024-02-26T01:37:31;27.20;;;15.50;;
85204;SDS011;75582;47.444;21.396;2024-02-26T01:38:57;28.70;;;16.23;;
85204;SDS011;75582;47.444;21.396;2024-02-26T01:40:23;30.67;;;15.90;;
85204;SDS011;75582;47.444;21.396;2024-02-26T01:41:52;31.65;;;16.75;;
85204;SDS011;75582;47.444;21.396;2024-02-26T01:43:18;26.48;;;15.57;;
85204;SDS011;75582;47.444;21.396;2024-02-26T01:44:44;29.73;;;16.38;;
85204;SDS011;75582;47.444;21.396;2024-02-26T01:46:11;31.23;;;16.55;;
85204;SDS011;75582;47.444;21.396;2024-02-26T01:47:42;29.88;;;17.13;;
85204;SDS011;75582;47.444;21.396;2024-02-26T01:49:08;30.65;;;16.38;;
85204;SDS011;75582;47.444;21.396;2024-02-26T01:50:38;29.75;;;16.50;;
85204;SDS011;75582;47.444;21.396;2024-02-26T01:52:06;27.67;;;16.20;;
85204;SDS011;75582;47.444;21.396;2024-02-26T01:53:32;28.90;;;15.60;;
85204;SDS011;75582;47.444;21.396;2024-02-26T01:54:58;27.05;;;16.08;;
85204;SDS011;75582;47.444;21.396;2024-02-26T01:56:26;28.70;;;16.92;;
85204;SDS011;75582;47.444;21.396;2024-02-26T01:57:56;29.60;;;15.65;;
85204;SDS011;75582;47.444;21.396;2024-02-26T01:59:22;35.42;;;15.25;;
85204;SDS011;75582;47.444;21.396;2024-02-26T02:00:48;27.35;;;15.13;;
85204;SDS011;75582;47.444;21.396;2024-02-26T02:02:14;27.55;;;15.93;;
85204;SDS011;75582;47.444;21.396;2024-02-26T02:03:41;30.13;;;16.73;;
85204;SDS011;75582;47.444;21.396;2024-02-26T02:05:08;31.08;;;15.90;;
85204;SDS011;75582;47.444;21.396;2024-02-26T02:06:35;29.98;;;15.27;;
85204;SDS011;75582;47.444;21.396;2024-02-26T02:08:01;26.60;;;15.23;;
85204;SDS011;75582;47.444;21.396;2024-02-26T02:09:29;27.50;;;15.85;;
85204;SDS011;75582;47.444;21.396;2024-02-26T02:10:55;25.73;;;16.13;;
85204;SDS011;75582;47.444;21.396;2024-02-26T02:12:22;28.08;;;16.70;;
85204;SDS011;75582;47.444;21.396;2024-02-26T02:13:48;28.80;;;15.18;;
85204;SDS011;75582;47.444;21.396;2024-02-26T02:15:14;25.73;;;14.90;;
85204;SDS011;75582;47.444;21.396;2024-02-26T02:16:40;30.33;;;16.13;;
85204;SDS011;75582;47.444;21.396;2024-02-26T02:18:06;26.65;;;15.95;;
85204;SDS011;75582;47.444;21.396;2024-02-26T02:19:33;26.52;;;15.68;;
85204;SDS011;75582;47.444;21.396;2024-02-26T02:21:02;30.70;;;16.27;;
85204;SDS011;75582;47.444;21.396;2024-02-26T02:22:28;30.17;;;15.40;;
85204;SDS011;75582;47.444;21.396;2024-02-26T02:23:54;28.27;;;14.88;;
85204;SDS011;75582;47.444;21.396;2024-02-26T02:25:27;27.67;;;15.07;;
85204;SDS011;75582;47.444;21.396;2024-02-26T02:26:53;26.75;;;15.50;;
85204;SDS011;75582;47.444;21.396;2024-02-26T02:28:19;26.08;;;14.10;;
85204;SDS011;75582;47.444;21.396;2024-02-26T02:29:45;30.75;;;15.60;;
85204;SDS011;75582;47.444;21.396;2024-02-26T02:31:12;25.17;;;15.38;;
85204;SDS011;75582;47.444;21.396;2024-02-26T02:32:39;25.30;;;15.05;;
85204;SDS011;75582;47.444;21.396;2024-02-26T02:34:07;26.52;;;14.10;;
85204;SDS011;75582;47.444;21.396;2024-02-26T02:35:34;25.85;;;14.57;;
85204;SDS011;75582;47.444;21.396;2024-02-26T02:37:00;25.77;;;14.67;;
85204;SDS011;75582;47.444;21.396;2024-02-26T02:38:26;23.98;;;13.93;;
85204;SDS011;75582;47.444;21.396;2024-02-26T02:39:53;27.88;;;14.63;;
85204;SDS011;75582;47.444;21.396;2024-02-26T02:41:20;32.13;;;15.52;;
85204;SDS011;75582;47.444;21.396;2024-02-26T02:42:46;31.35;;;15.85;;
85204;SDS011;75582;47.444;21.396;2024-02-26T02:44:12;29.27;;;16.10;;
85204;SDS011;75582;47.444;21.396;2024-02-26T02:45:38;25.70;;;14.75;;
85204;SDS011;75582;47.444;21.396;2024-02-26T02:47:04;25.58;;;15.80;;
85204;SDS011;75582;47.444;21.396;2024-02-26T02:48:30;26.83;;;15.93;;
85204;SDS011;75582;47.444;21.396;2024-02-26T02:49:56;31.00;;;15.10;;
85204;SDS011;75582;47.444;21.396;2024-02-26T02:51:22;25.73;;;15.20;;
85204;SDS011;75582;47.444;21.396;2024-02-26T02:52:48;26.15;;;14.93;;
85204;SDS011;75582;47.444;21.396;2024-02-26T02:54:15;27.85;;;14.82;;
85204;SDS011;75582;47.444;21.396;2024-02-26T02:55:41;28.92;;;15.40;;
85204;SDS011;75582;47.444;21.396;2024-02-26T02:57:07;28.77;;;15.30;;
85204;SDS011;75582;47.444;21.396;2024-02-26T02:58:34;27.92;;;14.45;;
85204;SDS011;75582;47.444;21.396;2024-02-26T03:00:00;27.42;;;14.93;;
85204;SDS011;75582;47.444;21.396;2024-02-26T03:01:26;25.73;;;15.18;;
85204;SDS011;75582;47.444;21.396;2024-02-26T03:02:52;24.15;;;13.82;;
85204;SDS011;75582;47.444;21.396;2024-02-26T03:04:18;25.33;;;14.77;;
85204;SDS011;75582;47.444;21.396;2024-02-26T03:05:44;27.40;;;14.90;;
85204;SDS011;75582;47.444;21.396;2024-02-26T03:07:10;27.30;;;14.23;;
85204;SDS011;75582;47.444;21.396;2024-02-26T03:08:36;25.77;;;14.55;;
85204;SDS011;75582;47.444;21.396;2024-02-26T03:10:03;27.23;;;15.27;;
85204;SDS011;75582;47.444;21.396;2024-02-26T03:11:29;30.27;;;14.27;;
85204;SDS011;75582;47.444;21.396;2024-02-26T03:12:55;26.70;;;14.35;;
85204;SDS011;75582;47.444;21.396;2024-02-26T03:14:21;30.30;;;16.30;;
85204;SDS011;75582;47.444;21.396;2024-02-26T03:15:47;25.15;;;14.70;;
85204;SDS011;75582;47.444;21.396;2024-02-26T03:17:13;22.42;;;13.50;;
85204;SDS011;75582;47.444;21.396;2024-02-26T03:18:39;27.60;;;14.43;;
85204;SDS011;75582;47.444;21.396;2024-02-26T03:20:05;27.83;;;14.93;;
85204;SDS011;75582;47.444;21.396;2024-02-26T03:21:34;33.30;;;15.48;;
85204;SDS011;75582;47.444;21.396;2024-02-26T03:23:00;24.77;;;13.27;;
85204;SDS011;75582;47.444;21.396;2024-02-26T03:24:32;26.10;;;14.35;;
85204;SDS011;75582;47.444;21.396;2024-02-26T03:25:58;25.40;;;14.20;;
85204;SDS011;75582;47.444;21.396;2024-02-26T03:27:24;27.40;;;13.77;;
85204;SDS011;75582;47.444;21.396;2024-02-26T03:28:50;25.83;;;13.85;;
85204;SDS011;75582;47.444;21.396;2024-02-26T03:30:16;23.73;;;13.80;;
85204;SDS011;75582;47.444;21.396;2024-02-26T03:31:42;24.13;;;14.10;;
85204;SDS011;75582;47.444;21.396;2024-02-26T03:33:08;23.50;;;13.30;;
85204;SDS011;75582;47.444;21.396;2024-02-26T03:34:34;25.07;;;13.83;;
85204;SDS011;75582;47.444;21.396;2024-02-26T03:36:00;24.45;;;13.85;;
85204;SDS011;75582;47.444;21.396;2024-02-26T03:37:26;27.98;;;13.60;;
85204;SDS011;75582;47.444;21.396;2024-02-26T03:38:52;27.88;;;13.65;;
85204;SDS011;75582;47.444;21.396;2024-02-26T03:40:18;27.45;;;15.38;;
85204;SDS011;75582;47.444;21.396;2024-02-26T03:41:45;25.50;;;13.85;;
85204;SDS011;75582;47.444;21.396;2024-02-26T03:43:11;24.08;;;13.70;;
85204;SDS011;75582;47.444;21.396;2024-02-26T03:44:38;30.25;;;14.30;;
85204;SDS011;75582;47.444;21.396;2024-02-26T03:46:06;21.38;;;14.25;;
85204;SDS011;75582;47.444;21.396;2024-02-26T03:47:33;23.08;;;13.18;;
85204;SDS011;75582;47.444;21.396;2024-02-26T03:48:59;23.43;;;12.80;;
85204;SDS011;75582;47.444;21.396;2024-02-26T03:50:25;27.00;;;12.95;;
85204;SDS011;75582;47.444;21.396;2024-02-26T03:51:51;27.92;;;13.45;;
85204;SDS011;75582;47.444;21.396;2024-02-26T03:53:17;27.70;;;14.25;;
85204;SDS011;75582;47.444;21.396;2024-02-26T03:54:43;24.40;;;12.95;;
85204;SDS011;75582;47.444;21.396;2024-02-26T03:56:10;26.23;;;13.00;;
85204;SDS011;75582;47.444;21.396;2024-02-26T03:57:37;26.98;;;14.05;;
85204;SDS011;75582;47.444;21.396;2024-02-26T03:59:03;29.30;;;14.35;;
85204;SDS011;75582;47.444;21.396;2024-02-26T04:00:28;21.88;;;13.45;;
85204;SDS011;75582;47.444;21.396;2024-02-26T04:01:55;27.55;;;13.70;;
85204;SDS011;75582;47.444;21.396;2024-02-26T04:03:21;26.77;;;13.97;;
85204;SDS011;75582;47.444;21.396;2024-02-26T04:04:47;25.95;;;14.07;;
85204;SDS011;75582;47.444;21.396;2024-02-26T04:06:13;28.27;;;13.73;;
85204;SDS011;75582;47.444;21.396;2024-02-26T04:07:45;24.08;;;12.85;;
85204;SDS011;75582;47.444;21.396;2024-02-26T04:09:11;26.08;;;13.13;;
85204;SDS011;75582;47.444;21.396;2024-02-26T04:10:39;23.23;;;13.02;;
85204;SDS011;75582;47.444;21.396;2024-02-26T04:12:05;28.08;;;13.98;;
85204;SDS011;75582;47.444;21.396;2024-02-26T04:13:31;22.75;;;13.90;;
85204;SDS011;75582;47.444;21.396;2024-02-26T04:14:57;27.48;;;13.60;;
85204;SDS011;75582;47.444;21.396;2024-02-26T04:16:23;26.00;;;13.13;;
85204;SDS011;75582;47.444;21.396;2024-02-26T04:17:49;29.07;;;14.47;;
85204;SDS011;75582;47.444;21.396;2024-02-26T04:19:15;22.33;;;13.25;;
85204;SDS011;75582;47.444;21.396;2024-02-26T04:20:41;28.83;;;14.02;;
85204;SDS011;75582;47.444;21.396;2024-02-26T04:22:07;24.88;;;13.93;;
85204;SDS011;75582;47.444;21.396;2024-02-26T04:23:33;30.00;;;13.60;;
85204;SDS011;75582;47.444;21.396;2024-02-26T04:24:59;24.92;;;13.52;;
85204;SDS011;75582;47.444;21.396;2024-02-26T04:26:32;28.27;;;13.88;;
85204;SDS011;75582;47.444;21.396;2024-02-26T04:27:58;26.70;;;13.77;;
85204;SDS011;75582;47.444;21.396;2024-02-26T04:29:24;26.92;;;13.20;;
85204;SDS011;75582;47.444;21.396;2024-02-26T04:30:50;22.85;;;12.93;;
85204;SDS011;75582;47.444;21.396;2024-02-26T04:32:15;29.97;;;14.10;;
85204;SDS011;75582;47.444;21.396;2024-02-26T04:33:42;26.27;;;13.80;;
85204;SDS011;75582;47.444;21.396;2024-02-26T04:35:08;32.58;;;14.32;;
85204;SDS011;75582;47.444;21.396;2024-02-26T04:36:34;33.03;;;14.20;;
85204;SDS011;75582;47.444;21.396;2024-02-26T04:38:00;31.27;;;15.55;;
85204;SDS011;75582;47.444;21.396;2024-02-26T04:39:26;28.42;;;14.75;;
85204;SDS011;75582;47.444;21.396;2024-02-26T04:40:52;38.47;;;16.92;;
85204;SDS011;75582;47.444;21.396;2024-02-26T04:42:18;41.55;;;16.58;;
85204;SDS011;75582;47.444;21.396;2024-02-26T04:43:44;38.40;;;16.63;;
85204;SDS011;75582;47.444;21.396;2024-02-26T04:45:10;42.53;;;16.80;;
85204;SDS011;75582;47.444;21.396;2024-02-26T04:46:36;39.93;;;16.73;;
85204;SDS011;75582;47.444;21.396;2024-02-26T04:48:02;38.88;;;15.25;;
85204;SDS011;75582;47.444;21.396;2024-02-26T04:49:28;32.38;;;15.40;;
85204;SDS011;75582;47.444;21.396;2024-02-26T04:50:54;33.08;;;15.80;;
85204;SDS011;75582;47.444;21.396;2024-02-26T04:52:21;28.45;;;14.95;;
85204;SDS011;75582;47.444;21.396;2024-02-26T04:53:47;29.92;;;14.43;;
85204;SDS011;75582;47.444;21.396;2024-02-26T04:55:13;29.35;;;14.57;;
85204;SDS011;75582;47.444;21.396;2024-02-26T04:56:39;27.50;;;13.65;;
85204;SDS011;75582;47.444;21.396;2024-02-26T04:58:05;24.77;;;14.65;;
85204;SDS011;75582;47.444;21.396;2024-02-26T04:59:31;29.73;;;13.38;;
85204;SDS011;75582;47.444;21.396;2024-02-26T05:00:57;26.53;;;14.17;;
85204;SDS011;75582;47.444;21.396;2024-02-26T05:02:23;23.65;;;13.25;;
85204;SDS011;75582;47.444;21.396;2024-02-26T05:03:50;26.20;;;13.07;;
85204;SDS011;75582;47.444;21.396;2024-02-26T05:05:16;30.98;;;13.45;;
85204;SDS011;75582;47.444;21.396;2024-02-26T05:06:42;24.80;;;13.90;;
85204;SDS011;75582;47.444;21.396;2024-02-26T05:08:08;26.80;;;12.70;;
85204;SDS011;75582;47.444;21.396;2024-02-26T05:09:34;23.73;;;13.18;;
85204;SDS011;75582;47.444;21.396;2024-02-26T05:11:00;28.45;;;13.20;;
85204;SDS011;75582;47.444;21.396;2024-02-26T05:12:28;25.48;;;13.95;;
85204;SDS011;75582;47.444;21.396;2024-02-26T05:13:54;23.52;;;12.88;;
85204;SDS011;75582;47.444;21.396;2024-02-26T05:15:20;28.40;;;13.90;;
85204;SDS011;75582;47.444;21.396;2024-02-26T05:16:46;25.70;;;12.90;;
85204;SDS011;75582;47.444;21.396;2024-02-26T05:18:12;23.65;;;12.98;;
85204;SDS011;75582;47.444;21.396;2024-02-26T05:19:38;24.33;;;13.48;;
85204;SDS011;75582;47.444;21.396;2024-02-26T05:21:04;22.85;;;12.77;;
85204;SDS011;75582;47.444;21.396;2024-02-26T05:22:30;23.30;;;12.27;;
85204;SDS011;75582;47.444;21.396;2024-02-26T05:24:02;21.95;;;12.00;;
85204;SDS011;75582;47.444;21.396;2024-02-26T05:25:28;20.23;;;11.77;;
85204;SDS011;75582;47.444;21.396;2024-02-26T05:26:54;19.58;;;12.10;;
85204;SDS011;75582;47.444;21.396;2024-02-26T05:28:22;19.27;;;11.82;;
85204;SDS011;75582;47.444;21.396;2024-02-26T05:29:48;26.93;;;11.80;;
85204;SDS011;75582;47.444;21.396;2024-02-26T05:31:14;23.38;;;12.55;;
85204;SDS011;75582;47.444;21.396;2024-02-26T05:32:41;21.95;;;11.13;;
85204;SDS011;75582;47.444;21.396;2024-02-26T05:34:07;18.77;;;11.90;;
85204;SDS011;75582;47.444;21.396;2024-02-26T05:35:33;23.23;;;12.07;;
85204;SDS011;75582;47.444;21.396;2024-02-26T05:36:59;23.75;;;12.00;;
85204;SDS011;75582;47.444;21.396;2024-02-26T05:38:25;20.42;;;10.75;;
85204;SDS011;75582;47.444;21.396;2024-02-26T05:39:51;21.52;;;12.82;;
85204;SDS011;75582;47.444;21.396;2024-02-26T05:41:18;23.00;;;13.18;;
85204;SDS011;75582;47.444;21.396;2024-02-26T05:42:48;24.10;;;12.55;;
85204;SDS011;75582;47.444;21.396;2024-02-26T05:44:14;22.93;;;12.90;;
85204;SDS011;75582;47.444;21.396;2024-02-26T05:45:41;24.60;;;11.63;;
85204;SDS011;75582;47.444;21.396;2024-02-26T05:47:07;22.38;;;11.93;;
85204;SDS011;75582;47.444;21.396;2024-02-26T05:48:33;21.02;;;11.57;;
85204;SDS011;75582;47.444;21.396;2024-02-26T05:49:59;23.67;;;12.32;;
85204;SDS011;75582;47.444;21.396;2024-02-26T05:51:26;24.85;;;12.93;;
85204;SDS011;75582;47.444;21.396;2024-02-26T05:52:52;23.50;;;12.18;;
85204;SDS011;75582;47.444;21.396;2024-02-26T05:54:18;24.17;;;12.27;;
85204;SDS011;75582;47.444;21.396;2024-02-26T05:55:50;21.67;;;12.55;;
85204;SDS011;75582;47.444;21.396;2024-02-26T05:57:23;21.45;;;11.88;;
85204;SDS011;75582;47.444;21.396;2024-02-26T05:58:49;23.57;;;12.57;;
85204;SDS011;75582;47.444;21.396;2024-02-26T06:00:16;19.83;;;11.43;;
85204;SDS011;75582;47.444;21.396;2024-02-26T06:01:42;22.35;;;12.13;;
85204;SDS011;75582;47.444;21.396;2024-02-26T06:03:08;21.48;;;12.43;;
85204;SDS011;75582;47.444;21.396;2024-02-26T06:04:34;19.15;;;11.70;;
85204;SDS011;75582;47.444;21.396;2024-02-26T06:06:00;20.10;;;10.75;;
85204;SDS011;75582;47.444;21.396;2024-02-26T06:07:26;21.00;;;11.00;;
85204;SDS011;75582;47.444;21.396;2024-02-26T06:08:51;22.45;;;11.52;;
85204;SDS011;75582;47.444;21.396;2024-02-26T06:10:18;26.08;;;11.98;;
85204;SDS011;75582;47.444;21.396;2024-02-26T06:11:46;18.88;;;10.20;;
85204;SDS011;75582;47.444;21.396;2024-02-26T06:13:12;21.17;;;10.77;;
85204;SDS011;75582;47.444;21.396;2024-02-26T06:14:38;21.15;;;10.80;;
85204;SDS011;75582;47.444;21.396;2024-02-26T06:16:04;20.42;;;11.55;;
85204;SDS011;75582;47.444;21.396;2024-02-26T06:17:30;22.75;;;11.60;;
85204;SDS011;75582;47.444;21.396;2024-02-26T06:18:56;22.13;;;11.85;;
85204;SDS011;75582;47.444;21.396;2024-02-26T06:20:22;18.85;;;10.10;;
85204;SDS011;75582;47.444;21.396;2024-02-26T06:21:48;19.95;;;10.70;;
85204;SDS011;75582;47.444;21.396;2024-02-26T06:23:14;21.75;;;10.75;;
85204;SDS011;75582;47.444;21.396;2024-02-26T06:24:46;21.20;;;10.98;;
85204;SDS011;75582;47.444;21.396;2024-02-26T06:26:12;17.92;;;10.85;;
85204;SDS011;75582;47.444;21.396;2024-02-26T06:27:38;19.10;;;10.17;;
85204;SDS011;75582;47.444;21.396;2024-02-26T06:29:04;21.25;;;9.88;;
85204;SDS011;75582;47.444;21.396;2024-02-26T06:30:30;21.98;;;10.30;;
85204;SDS011;75582;47.444;21.396;2024-02-26T06:31:56;18.00;;;9.57;;
85204;SDS011;75582;47.444;21.396;2024-02-26T06:33:22;18.10;;;10.80;;
85204;SDS011;75582;47.444;21.396;2024-02-26T06:34:48;15.82;;;9.27;;
85204;SDS011;75582;47.444;21.396;2024-02-26T06:38:32;20.20;;;9.68;;
85204;SDS011;75582;47.444;21.396;2024-02-26T06:39:58;19.52;;;10.48;;
85204;SDS011;75582;47.444;21.396;2024-02-26T06:41:24;18.75;;;8.93;;
85204;SDS011;75582;47.444;21.396;2024-02-26T06:42:55;27.93;;;13.20;;
85204;SDS011;75582;47.444;21.396;2024-02-26T06:44:21;21.83;;;9.98;;
85204;SDS011;75582;47.444;21.396;2024-02-26T06:45:47;19.98;;;10.52;;
85204;SDS011;75582;47.444;21.396;2024-02-26T06:47:13;20.08;;;11.48;;
85204;SDS011;75582;47.444;21.396;2024-02-26T06:48:39;24.67;;;10.80;;
85204;SDS011;75582;47.444;21.396;2024-02-26T06:50:05;23.50;;;10.93;;
85204;SDS011;75582;47.444;21.396;2024-02-26T06:51:31;19.85;;;11.35;;
85204;SDS011;75582;47.444;21.396;2024-02-26T06:52:57;18.30;;;10.65;;
85204;SDS011;75582;47.444;21.396;2024-02-26T06:54:23;19.05;;;9.63;;
85204;SDS011;75582;47.444;21.396;2024-02-26T06:55:49;18.15;;;10.00;;
85204;SDS011;75582;47.444;21.396;2024-02-26T06:57:16;14.57;;;8.87;;
85204;SDS011;75582;47.444;21.396;2024-02-26T06:58:42;17.20;;;9.52;;
85204;SDS011;75582;47.444;21.396;2024-02-26T07:00:08;12.93;;;8.05;;
85204;SDS011;75582;47.444;21.396;2024-02-26T07:01:40;13.75;;;8.57;;
85204;SDS011;75582;47.444;21.396;2024-02-26T07:03:07;17.45;;;8.35;;
85204;SDS011;75582;47.444;21.396;2024-02-26T07:04:32;15.23;;;8.38;;
85204;SDS011;75582;47.444;21.396;2024-02-26T07:05:59;16.52;;;9.02;;
85204;SDS011;75582;47.444;21.396;2024-02-26T07:07:25;14.55;;;8.43;;
85204;SDS011;75582;47.444;21.396;2024-02-26T07:08:51;14.15;;;8.27;;
85204;SDS011;75582;47.444;21.396;2024-02-26T07:10:16;19.00;;;8.38;;
85204;SDS011;75582;47.444;21.396;2024-02-26T07:11:43;14.53;;;7.60;;
85204;SDS011;75582;47.444;21.396;2024-02-26T07:13:09;13.85;;;7.05;;
85204;SDS011;75582;47.444;21.396;2024-02-26T07:14:35;13.52;;;7.95;;
85204;SDS011;75582;47.444;21.396;2024-02-26T07:16:03;14.77;;;8.70;;
85204;SDS011;75582;47.444;21.396;2024-02-26T07:17:30;12.68;;;6.47;;
85204;SDS011;75582;47.444;21.396;2024-02-26T07:18:56;15.57;;;7.85;;
85204;SDS011;75582;47.444;21.396;2024-02-26T07:20:22;12.68;;;6.65;;
85204;SDS011;75582;47.444;21.396;2024-02-26T07:21:48;12.75;;;7.35;;
85204;SDS011;75582;47.444;21.396;2024-02-26T07:23:14;11.77;;;6.75;;
85204;SDS011;75582;47.444;21.396;2024-02-26T07:24:40;14.13;;;7.03;;
85204;SDS011;75582;47.444;21.396;2024-02-26T07:26:13;13.13;;;6.10;;
85204;SDS011;75582;47.444;21.396;2024-02-26T07:27:39;14.30;;;6.80;;
85204;SDS011;75582;47.444;21.396;2024-02-26T07:29:06;15.10;;;7.00;;
85204;SDS011;75582;47.444;21.396;2024-02-26T07:30:32;17.05;;;8.02;;
85204;SDS011;75582;47.444;21.396;2024-02-26T07:31:58;16.52;;;6.47;;
85204;SDS011;75582;47.444;21.396;2024-02-26T07:33:24;14.50;;;6.68;;
85204;SDS011;75582;47.444;21.396;2024-02-26T07:34:50;13.18;;;6.43;;
85204;SDS011;75582;47.444;21.396;2024-02-26T07:36:16;15.98;;;6.93;;
85204;SDS011;75582;47.444;21.396;2024-02-26T07:37:42;14.38;;;7.28;;
85204;SDS011;75582;47.444;21.396;2024-02-26T07:39:08;11.15;;;6.60;;
85204;SDS011;75582;47.444;21.396;2024-02-26T07:40:34;13.70;;;6.53;;
85204;SDS011;75582;47.444;21.396;2024-02-26T07:42:00;13.10;;;6.90;;
85204;SDS011;75582;47.444;21.396;2024-02-26T07:43:26;12.77;;;6.03;;
85204;SDS011;75582;47.444;21.396;2024-02-26T07:44:52;11.43;;;6.50;;
85204;SDS011;75582;47.444;21.396;2024-02-26T07:46:21;9.85;;;6.28;;
85204;SDS011;75582;47.444;21.396;2024-02-26T07:47:47;9.93;;;6.07;;
85204;SDS011;75582;47.444;21.396;2024-02-26T07:49:13;14.05;;;5.40;;
85204;SDS011;75582;47.444;21.396;2024-02-26T07:50:38;9.82;;;5.32;;
85204;SDS011;75582;47.444;21.396;2024-02-26T07:52:06;13.35;;;6.20;;
85204;SDS011;75582;47.444;21.396;2024-02-26T07:53:32;13.68;;;6.03;;
85204;SDS011;75582;47.444;21.396;2024-02-26T07:54:58;13.23;;;6.00;;
85204;SDS011;75582;47.444;21.396;2024-02-26T07:56:24;15.15;;;5.80;;
85204;SDS011;75582;47.444;21.396;2024-02-26T07:57:50;12.10;;;5.40;;
85204;SDS011;75582;47.444;21.396;2024-02-26T07:59:16;12.45;;;5.68;;
85204;SDS011;75582;47.444;21.396;2024-02-26T08:00:42;12.52;;;6.15;;
85204;SDS011;75582;47.444;21.396;2024-02-26T08:02:09;14.18;;;6.40;;
85204;SDS011;75582;47.444;21.396;2024-02-26T08:03:35;13.70;;;5.30;;
85204;SDS011;75582;47.444;21.396;2024-02-26T08:05:03;8.43;;;5.15;;
85204;SDS011;75582;47.444;21.396;2024-02-26T08:06:30;8.65;;;4.88;;
85204;SDS011;75582;47.444;21.396;2024-02-26T08:07:55;13.73;;;5.28;;
85204;SDS011;75582;47.444;21.396;2024-02-26T08:09:22;10.50;;;5.50;;
85204;SDS011;75582;47.444;21.396;2024-02-26T08:10:48;19.38;;;5.90;;
85204;SDS011;75582;47.444;21.396;2024-02-26T08:12:14;11.15;;;4.85;;
85204;SDS011;75582;47.444;21.396;2024-02-26T08:13:42;15.05;;;4.88;;
85204;SDS011;75582;47.444;21.396;2024-02-26T08:15:08;12.10;;;4.93;;
85204;SDS011;75582;47.444;21.396;2024-02-26T08:16:34;14.93;;;4.90;;
85204;SDS011;75582;47.444;21.396;2024-02-26T08:18:00;12.25;;;5.82;;
85204;SDS011;75582;47.444;21.396;2024-02-26T08:19:29;12.90;;;5.05;;
85204;SDS011;75582;47.444;21.396;2024-02-26T08:20:55;14.80;;;5.53;;
85204;SDS011;75582;47.444;21.396;2024-02-26T08:22:21;10.95;;;4.55;;